createdAt,value
2018-05-02T00:00:03.164Z,50.30
2018-05-02T00:02:30.731Z,50.70
2018-05-02T00:04:58.242Z,50.90
2018-05-02T00:07:25.809Z,50.80
2018-05-02T00:09:53.268Z,50.90
2018-05-02T00:12:20.773Z,51.00
2018-05-02T00:14:48.296Z,50.30
2018-05-02T00:17:15.829Z,51.20
2018-05-02T00:19:43.389Z,50.60
2018-05-02T00:22:11.670Z,51.10
2018-05-02T00:24:39.199Z,51.10
2018-05-02T00:27:06.732Z,51.20
2018-05-02T00:29:34.264Z,50.90
2018-05-02T00:32:01.792Z,51.10
2018-05-02T00:34:29.342Z,51.40
2018-05-02T00:36:56.848Z,51.60
2018-05-02T00:39:24.385Z,51.40
2018-05-02T00:41:51.902Z,52.00
2018-05-02T00:44:19.411Z,52.30
2018-05-02T00:46:46.918Z,52.20
2018-05-02T00:49:17.336Z,52.10
2018-05-02T00:51:45.625Z,53.60
2018-05-02T00:54:13.162Z,53.50
2018-05-02T00:56:41.458Z,54.90
2018-05-02T00:59:09.744Z,54.20
2018-05-02T01:01:37.257Z,54.20
2018-05-02T01:04:04.817Z,54.30
2018-05-02T01:06:32.343Z,54.50
2018-05-02T01:08:59.914Z,54.70
2018-05-02T01:11:27.430Z,54.70
2018-05-02T01:13:55.694Z,55.30
2018-05-02T01:16:24.018Z,55.60
2018-05-02T01:18:51.540Z,55.60
2018-05-02T01:21:19.061Z,55.80
2018-05-02T01:23:46.588Z,55.70
2018-05-02T01:26:14.104Z,56.10
2018-05-02T01:28:41.613Z,56.50
2018-05-02T01:31:09.119Z,56.90
2018-05-02T01:33:36.629Z,57.20
2018-05-02T01:36:04.138Z,57.70
2018-05-02T01:38:31.662Z,57.80
2018-05-02T01:40:59.172Z,58.30
2018-05-02T01:43:26.724Z,59.80
2018-05-02T01:45:55.011Z,62.00
2018-05-02T01:48:22.524Z,61.90
2018-05-02T01:50:50.041Z,62.90
2018-05-02T01:53:17.541Z,63.70
2018-05-02T01:55:45.054Z,65.00
2018-05-02T01:58:12.591Z,66.10
2018-05-02T02:00:40.106Z,66.40
2018-05-02T02:03:07.627Z,67.40
2018-05-02T02:05:35.888Z,68.00
2018-05-02T02:08:03.435Z,68.00
2018-05-02T02:10:30.937Z,68.60
2018-05-02T02:12:58.538Z,69.10
2018-05-02T02:15:26.054Z,69.70
2018-05-02T02:17:53.570Z,69.90
2018-05-02T02:20:21.069Z,70.70
2018-05-02T02:22:49.509Z,71.00
2018-05-02T02:25:17.077Z,71.90
2018-05-02T02:27:44.580Z,72.00
2018-05-02T02:30:12.129Z,72.70
2018-05-02T02:32:39.741Z,72.70
2018-05-02T02:35:07.281Z,73.10
2018-05-02T02:37:34.798Z,72.90
2018-05-02T02:40:03.193Z,73.70
2018-05-02T02:42:30.714Z,73.70
2018-05-02T02:44:58.248Z,73.80
2018-05-02T02:47:25.780Z,73.80
2018-05-02T02:49:53.295Z,74.00
2018-05-02T02:52:20.803Z,74.10
2018-05-02T02:54:48.351Z,74.20
2018-05-02T02:57:15.862Z,74.30
2018-05-02T02:59:43.446Z,74.50
2018-05-02T03:02:10.958Z,74.30
2018-05-02T03:04:38.478Z,74.50
2018-05-02T03:07:06.001Z,73.90
2018-05-02T03:09:33.494Z,73.70
2018-05-02T03:12:01.007Z,73.60
2018-05-02T03:14:28.509Z,73.50
2018-05-02T03:16:56.786Z,72.90
2018-05-02T03:19:24.309Z,72.80
2018-05-02T03:21:51.822Z,72.00
2018-05-02T03:24:19.342Z,72.10
2018-05-02T03:26:46.832Z,72.90
2018-05-02T03:29:14.354Z,72.10
2018-05-02T03:31:41.873Z,71.70
2018-05-02T03:34:09.388Z,71.30
2018-05-02T03:36:37.754Z,69.80
2018-05-02T03:39:05.269Z,69.60
2018-05-02T03:41:32.807Z,68.80
2018-05-02T03:44:00.311Z,67.90
2018-05-02T03:46:27.821Z,67.40
2018-05-02T03:48:55.339Z,67.20
2018-05-02T03:51:22.877Z,67.50
2018-05-02T03:53:50.380Z,67.00
2018-05-02T03:56:18.662Z,67.00
2018-05-02T03:58:46.194Z,67.00
2018-05-02T04:01:25.571Z,67.30
2018-05-02T04:04:05.771Z,67.70
2018-05-02T04:06:45.050Z,67.60
2018-05-02T04:09:13.326Z,67.70
2018-05-02T04:11:41.613Z,67.70
2018-05-02T04:14:09.140Z,67.70
2018-05-02T04:16:36.665Z,68.00
2018-05-02T04:19:04.187Z,68.30
2018-05-02T04:21:32.474Z,68.00
2018-05-02T04:24:00.745Z,68.00
2018-05-02T04:26:29.016Z,68.10
2018-05-02T04:28:57.295Z,68.60
2018-05-02T04:31:25.570Z,69.20
2018-05-02T04:33:53.838Z,68.50
2018-05-02T04:36:22.120Z,68.50
2018-05-02T04:38:49.627Z,68.10
2018-05-02T04:41:17.227Z,67.10
2018-05-02T04:43:44.725Z,67.30
2018-05-02T04:46:12.222Z,66.80
2018-05-02T04:48:39.738Z,66.10
2018-05-02T04:51:07.314Z,65.60
2018-05-02T04:53:34.817Z,65.50
2018-05-02T04:56:02.339Z,64.90
2018-05-02T04:58:29.871Z,64.90
2018-05-02T05:00:58.133Z,64.70
2018-05-02T05:03:26.419Z,65.00
2018-05-02T05:05:54.701Z,65.00
2018-05-02T05:08:22.979Z,62.80
2018-05-02T05:10:51.281Z,62.80
2018-05-02T05:13:18.835Z,62.80
2018-05-02T05:15:46.370Z,62.30
2018-05-02T05:18:14.639Z,61.60
2018-05-02T05:20:42.918Z,60.40
2018-05-02T05:23:11.217Z,60.20
2018-05-02T05:25:38.763Z,60.20
2018-05-02T05:28:06.270Z,60.70
2018-05-02T05:30:33.781Z,59.80
2018-05-02T05:33:02.070Z,59.90
2018-05-02T05:35:29.593Z,59.90
2018-05-02T05:37:57.130Z,60.30
2018-05-02T05:40:24.681Z,59.40
2018-05-02T05:42:52.209Z,59.40
2018-05-02T05:45:19.853Z,59.70
2018-05-02T05:47:47.505Z,59.60
2018-05-02T05:50:15.020Z,59.50
2018-05-02T05:52:42.584Z,58.40
2018-05-02T05:55:10.114Z,57.90
2018-05-02T05:57:37.695Z,57.90
2018-05-02T06:00:05.228Z,57.80
2018-05-02T06:02:32.760Z,57.60
2018-05-02T06:05:01.111Z,57.60
2018-05-02T06:07:28.608Z,57.80
2018-05-02T06:09:56.898Z,57.40
2018-05-02T06:12:24.445Z,57.30
2018-05-02T06:14:51.987Z,57.20
2018-05-02T06:17:19.600Z,57.20
2018-05-02T06:19:47.128Z,57.50
2018-05-02T06:22:15.416Z,57.10
2018-05-02T06:24:43.718Z,57.10
2018-05-02T06:27:11.225Z,57.00
2018-05-02T06:29:38.739Z,56.60
2018-05-02T06:32:06.253Z,56.60
2018-05-02T06:34:33.762Z,56.80
2018-05-02T06:37:01.269Z,55.80
2018-05-02T06:39:28.784Z,54.00
2018-05-02T06:41:56.306Z,54.00
2018-05-02T06:44:23.816Z,54.50
2018-05-02T06:46:52.092Z,54.70
2018-05-02T06:49:19.776Z,54.70
2018-05-02T06:51:47.983Z,54.70
2018-05-02T06:54:15.494Z,54.60
2018-05-02T06:56:43.206Z,54.30
2018-05-02T06:59:11.521Z,53.60
2018-05-02T07:01:39.086Z,53.50
2018-05-02T07:04:06.594Z,53.10
2018-05-02T07:06:35.020Z,52.80
2018-05-02T07:09:02.596Z,52.70
2018-05-02T07:11:30.130Z,53.10
2018-05-02T07:13:57.667Z,53.00
2018-05-02T07:16:25.270Z,53.20
2018-05-02T07:18:52.782Z,53.20
2018-05-02T07:21:24.576Z,53.60
2018-05-02T07:23:52.101Z,53.50
2018-05-02T07:26:19.629Z,53.80
2018-05-02T07:28:47.149Z,53.20
2018-05-02T07:31:14.740Z,52.70
2018-05-02T07:33:42.311Z,52.20
2018-05-02T07:36:09.844Z,51.60
2018-05-02T07:38:37.506Z,51.10
2018-05-02T07:41:05.030Z,51.30
2018-05-02T07:43:33.306Z,51.00
2018-05-02T07:46:01.670Z,51.30
2018-05-02T07:48:29.169Z,51.30
2018-05-02T07:50:56.669Z,50.40
2018-05-02T07:53:24.236Z,51.10
2018-05-02T07:55:51.772Z,51.30
2018-05-02T07:58:19.280Z,50.90
2018-05-02T08:00:46.810Z,49.50
2018-05-02T08:03:14.338Z,49.60
2018-05-02T08:05:41.993Z,49.40
2018-05-02T08:08:09.566Z,49.20
2018-05-02T08:10:37.093Z,49.40
2018-05-02T08:13:04.613Z,48.90
2018-05-02T08:15:32.123Z,48.20
2018-05-02T08:17:59.664Z,48.60
2018-05-02T08:20:27.187Z,48.70
2018-05-02T08:22:54.697Z,47.50
2018-05-02T08:25:22.299Z,48.20
2018-05-02T08:27:49.862Z,48.10
2018-05-02T08:30:17.377Z,48.30
2018-05-02T08:32:45.701Z,49.00
2018-05-02T08:35:13.198Z,49.00
2018-05-02T08:37:41.472Z,48.50
2018-05-02T08:40:09.750Z,48.10
2018-05-02T08:42:38.019Z,46.80
2018-05-02T08:45:06.293Z,47.40
2018-05-02T08:47:34.576Z,47.60
2018-05-02T08:50:02.914Z,47.00
2018-05-02T08:52:30.423Z,47.00
2018-05-02T08:54:57.937Z,47.60
2018-05-02T08:57:25.447Z,47.20
2018-05-02T08:59:52.970Z,47.40
2018-05-02T09:02:20.473Z,47.30
2018-05-02T09:04:47.972Z,46.60
2018-05-02T09:07:15.479Z,47.10
2018-05-02T09:09:43.007Z,47.10
2018-05-02T09:12:10.519Z,47.60
2018-05-02T09:14:38.022Z,45.90
2018-05-02T09:17:05.559Z,46.40
2018-05-02T09:19:33.129Z,44.00
2018-05-02T09:22:00.661Z,43.30
2018-05-02T09:24:28.970Z,43.20
2018-05-02T09:26:56.473Z,43.60
2018-05-02T09:29:23.982Z,43.20
2018-05-02T09:31:51.517Z,43.50
2018-05-02T09:34:19.076Z,43.70
2018-05-02T09:36:46.585Z,44.30
2018-05-02T09:39:14.212Z,45.20
2018-05-02T09:41:41.721Z,46.70
2018-05-02T09:44:10.034Z,45.10
2018-05-02T09:46:37.532Z,45.10
2018-05-02T09:49:05.030Z,45.20
2018-05-02T09:51:32.588Z,45.50
2018-05-02T09:54:01.280Z,45.00
2018-05-02T09:56:28.792Z,45.00
2018-05-02T09:58:56.313Z,46.00
2018-05-02T10:01:23.877Z,46.10
2018-05-02T10:03:51.379Z,46.30
2018-05-02T10:06:18.900Z,46.50
2018-05-02T10:08:46.430Z,46.70
2018-05-02T10:11:17.402Z,46.90
2018-05-02T10:13:44.946Z,46.90
2018-05-02T10:16:12.484Z,47.30
2018-05-02T10:18:40.760Z,47.50
2018-05-02T10:21:09.045Z,47.80
2018-05-02T10:23:36.551Z,47.80
2018-05-02T10:26:04.067Z,48.00
2018-05-02T10:28:31.584Z,48.10
2018-05-02T10:30:59.098Z,48.10
2018-05-02T10:33:26.678Z,48.20
2018-05-02T10:35:54.197Z,48.20
2018-05-02T10:38:22.569Z,48.20
2018-05-02T10:40:50.117Z,48.20
2018-05-02T10:43:18.407Z,48.70
2018-05-02T10:45:46.677Z,48.80
2018-05-02T10:48:14.971Z,48.90
2018-05-02T10:50:43.293Z,48.70
2018-05-02T10:53:10.833Z,48.60
2018-05-02T10:55:38.353Z,48.50
2018-05-02T10:58:05.906Z,48.60
2018-05-02T11:00:34.222Z,49.00
2018-05-02T11:03:01.739Z,48.40
2018-05-02T11:05:29.333Z,48.40
2018-05-02T11:07:56.850Z,48.40
2018-05-02T11:10:24.353Z,48.30
2018-05-02T11:12:51.876Z,48.80
2018-05-02T11:15:19.380Z,48.50
2018-05-02T11:17:46.897Z,48.50
2018-05-02T11:20:15.195Z,48.10
2018-05-02T11:22:43.492Z,48.20
2018-05-02T11:25:11.034Z,48.80
2018-05-02T11:27:38.590Z,48.20
2018-05-02T11:30:06.860Z,48.70
2018-05-02T11:32:35.134Z,48.40
2018-05-02T11:35:03.418Z,48.70
2018-05-02T11:37:30.935Z,48.70
2018-05-02T11:39:58.464Z,48.70
2018-05-02T11:42:26.020Z,48.80
2018-05-02T11:44:53.541Z,48.90
2018-05-02T11:47:21.077Z,49.00
2018-05-02T11:49:48.600Z,49.40
2018-05-02T11:52:16.150Z,49.30
2018-05-02T11:54:43.781Z,49.40
2018-05-02T11:57:11.293Z,49.90
2018-05-02T11:59:38.830Z,50.40
2018-05-02T12:02:06.355Z,51.10
2018-05-02T12:04:33.959Z,50.40
2018-05-02T12:07:01.463Z,50.60
2018-05-02T12:09:28.980Z,51.00
2018-05-02T12:11:56.496Z,51.20
2018-05-02T12:14:24.042Z,51.20
2018-05-02T12:16:51.553Z,52.00
2018-05-02T12:19:19.132Z,52.40
2018-05-02T12:21:46.682Z,52.60
2018-05-02T12:24:14.936Z,53.60
2018-05-02T12:26:42.468Z,53.60
2018-05-02T12:29:10.778Z,53.60
2018-05-02T12:31:38.319Z,53.60
2018-05-02T12:34:05.834Z,53.70
2018-05-02T12:36:33.388Z,53.70
2018-05-02T12:39:00.909Z,53.70
2018-05-02T12:41:28.457Z,53.90
2018-05-02T12:43:56.733Z,54.30
2018-05-02T12:46:24.324Z,54.40
2018-05-02T12:48:51.840Z,54.60
2018-05-02T12:51:20.106Z,54.50
2018-05-02T12:53:47.634Z,54.50
2018-05-02T12:56:15.308Z,54.70
2018-05-02T12:58:42.822Z,54.90
2018-05-02T13:01:10.386Z,55.20
2018-05-02T13:03:38.675Z,55.60
2018-05-02T13:06:06.219Z,55.60
2018-05-02T13:08:34.518Z,55.30
2018-05-02T13:11:02.103Z,55.30
2018-05-02T13:13:29.605Z,54.90
2018-05-02T13:15:57.117Z,54.10
2018-05-02T13:18:24.627Z,53.70
2018-05-02T13:20:52.892Z,53.30
2018-05-02T13:23:20.432Z,53.40
2018-05-02T13:25:47.939Z,53.10
2018-05-02T13:28:15.441Z,53.10
2018-05-02T13:30:42.972Z,52.40
2018-05-02T13:33:10.485Z,52.10
2018-05-02T13:35:38.019Z,51.20
2018-05-02T13:38:05.551Z,51.50
2018-05-02T13:40:33.289Z,51.20
2018-05-02T13:43:00.805Z,50.60
2018-05-02T13:45:28.335Z,49.80
2018-05-02T13:47:55.864Z,48.50
2018-05-02T13:50:23.478Z,49.30
2018-05-02T13:52:51.052Z,49.10
2018-05-02T13:55:18.589Z,49.10
2018-05-02T13:57:46.187Z,49.40
2018-05-02T14:00:13.697Z,48.20
2018-05-02T14:02:41.213Z,48.70
2018-05-02T14:05:08.740Z,49.40
2018-05-02T14:07:36.270Z,50.10
2018-05-02T14:10:03.851Z,50.00
2018-05-02T14:12:31.373Z,49.80
2018-05-02T14:14:59.670Z,49.20
2018-05-02T14:17:27.821Z,48.60
2018-05-02T14:19:55.342Z,48.80
2018-05-02T14:22:22.887Z,48.10
2018-05-02T14:24:50.440Z,48.30
2018-05-02T14:27:17.944Z,48.50
2018-05-02T14:29:45.478Z,48.00
2018-05-02T14:32:13.015Z,48.30
2018-05-02T14:34:40.543Z,48.50
2018-05-02T14:37:08.125Z,48.60
2018-05-02T14:39:35.648Z,48.30
2018-05-02T14:42:03.596Z,47.50
2018-05-02T14:44:31.377Z,47.40
2018-05-02T14:46:58.912Z,47.40
2018-05-02T14:49:26.465Z,46.60
2018-05-02T14:51:54.001Z,46.60
2018-05-02T14:54:21.776Z,46.80
2018-05-02T14:56:49.350Z,47.60
2018-05-02T14:59:16.873Z,47.70
2018-05-02T15:01:44.442Z,47.80
2018-05-02T15:04:11.944Z,47.10
2018-05-02T15:06:39.525Z,47.90
2018-05-02T15:09:07.919Z,47.40
2018-05-02T15:11:35.513Z,47.20
2018-05-02T15:14:03.074Z,47.50
2018-05-02T15:16:30.621Z,47.70
2018-05-02T15:18:58.383Z,48.00
2018-05-02T15:21:25.897Z,48.20
2018-05-02T15:23:53.503Z,48.30
2018-05-02T15:26:21.034Z,47.90
2018-05-02T15:28:49.306Z,48.70
2018-05-02T15:31:16.835Z,48.60
2018-05-02T15:33:44.331Z,48.60
2018-05-02T15:36:11.897Z,48.70
2018-05-02T15:38:40.361Z,49.20
2018-05-02T15:41:07.916Z,49.10
2018-05-02T15:43:35.507Z,49.10
2018-05-02T15:46:03.785Z,49.80
2018-05-02T15:48:31.297Z,49.80
2018-05-02T15:50:58.814Z,49.80
2018-05-02T15:53:26.439Z,49.80
2018-05-02T15:55:53.988Z,49.80
2018-05-02T15:58:21.547Z,49.80
2018-05-02T16:00:49.160Z,50.40
2018-05-02T16:03:16.694Z,50.80
2018-05-02T16:05:44.292Z,50.80
2018-05-02T16:08:11.799Z,50.50
2018-05-02T16:10:39.309Z,50.60
2018-05-02T16:13:06.845Z,50.50
2018-05-02T16:15:35.251Z,50.70
2018-05-02T16:18:02.760Z,50.70
2018-05-02T16:20:31.078Z,51.60
2018-05-02T16:22:58.593Z,51.10
2018-05-02T16:25:26.106Z,51.10
2018-05-02T16:27:53.718Z,51.40
2018-05-02T16:30:21.208Z,51.40
2018-05-02T16:32:48.787Z,51.60
2018-05-02T16:35:16.288Z,51.80
2018-05-02T16:37:43.817Z,51.80
2018-05-02T16:40:11.399Z,52.00
2018-05-02T16:42:38.908Z,52.30
2018-05-02T16:45:08.298Z,52.90
2018-05-02T16:47:35.911Z,52.90
2018-05-02T16:50:03.541Z,53.00
2018-05-02T16:52:31.065Z,53.10
2018-05-02T16:54:58.646Z,52.90
2018-05-02T16:57:26.294Z,53.10
2018-05-02T16:59:53.979Z,53.30
2018-05-02T17:02:22.412Z,53.60
2018-05-02T17:04:50.205Z,53.50
2018-05-02T17:07:18.970Z,53.60
2018-05-02T17:09:46.469Z,53.80
2018-05-02T17:12:14.039Z,54.10
2018-05-02T17:14:41.697Z,54.30
2018-05-02T17:17:09.511Z,54.60
2018-05-02T17:19:37.132Z,54.50
2018-05-02T17:22:04.730Z,54.40
2018-05-02T17:24:32.226Z,54.40
2018-05-02T17:27:00.562Z,54.50
2018-05-02T17:29:28.199Z,54.50
2018-05-02T17:31:55.754Z,54.40
2018-05-02T17:34:23.336Z,54.50
2018-05-02T17:36:51.069Z,54.80
2018-05-02T17:39:18.772Z,55.00
2018-05-02T17:41:46.793Z,54.90
2018-05-02T17:44:14.489Z,54.70
2018-05-02T17:46:42.024Z,54.90
2018-05-02T17:49:10.355Z,55.30
2018-05-02T17:51:38.311Z,55.20
2018-05-02T17:54:05.983Z,55.20
2018-05-02T17:56:33.594Z,55.40
2018-05-02T17:59:01.736Z,55.40
2018-05-02T18:01:29.392Z,55.50
2018-05-02T18:03:57.058Z,55.60
2018-05-02T18:06:24.758Z,55.70
2018-05-02T18:08:54.905Z,55.80
2018-05-02T18:11:22.602Z,56.00
2018-05-02T18:14:01.956Z,56.30
2018-05-02T18:16:30.306Z,56.20
2018-05-02T18:18:57.970Z,56.20
2018-05-02T18:21:25.595Z,56.30
2018-05-02T18:23:53.218Z,56.50
2018-05-02T18:26:20.735Z,56.50
2018-05-02T18:28:48.312Z,57.30
2018-05-02T18:31:15.951Z,56.70
2018-05-02T18:33:43.477Z,56.60
2018-05-02T18:36:11.084Z,56.40
2018-05-02T18:38:38.839Z,56.50
2018-05-02T18:41:06.475Z,56.40
2018-05-02T18:43:35.600Z,56.80
2018-05-02T18:46:03.168Z,56.80
2018-05-02T18:48:31.609Z,57.00
2018-05-02T18:50:59.237Z,57.00
2018-05-02T18:53:26.838Z,56.90
2018-05-02T18:55:54.466Z,57.00
2018-05-02T18:58:23.375Z,57.10
2018-05-02T19:00:50.991Z,57.10
2018-05-02T19:03:19.169Z,57.20
2018-05-02T19:05:46.917Z,57.10
2018-05-02T19:08:15.417Z,57.20
2018-05-02T19:10:43.059Z,57.20
2018-05-02T19:13:10.811Z,57.30
2018-05-02T19:15:38.372Z,57.30
2018-05-02T19:18:11.540Z,57.60
2018-05-02T19:20:39.281Z,57.80
2018-05-02T19:23:07.164Z,57.50
2018-05-02T19:25:40.554Z,57.60
2018-05-02T19:28:09.002Z,58.40
2018-05-02T19:30:38.416Z,58.00
2018-05-02T19:33:12.151Z,58.00
2018-05-02T19:35:39.815Z,58.00
2018-05-02T19:38:07.513Z,58.20
2018-05-02T19:40:40.830Z,58.10
2018-05-02T19:43:14.039Z,58.30
2018-05-02T19:45:41.645Z,58.30
2018-05-02T19:48:09.290Z,58.10
2018-05-02T19:50:36.968Z,58.30
2018-05-02T19:53:05.365Z,58.40
2018-05-02T19:55:32.908Z,58.50
2018-05-02T19:58:00.580Z,58.60
2018-05-02T20:00:35.550Z,58.60
2018-05-02T20:03:03.127Z,58.70
2018-05-02T20:05:30.928Z,58.80
2018-05-02T20:07:59.168Z,58.80
2018-05-02T20:10:32.393Z,58.80
2018-05-02T20:13:08.434Z,58.70
2018-05-02T20:15:36.057Z,58.80
2018-05-02T20:18:03.573Z,58.90
2018-05-02T20:20:31.128Z,59.00
2018-05-02T20:22:59.477Z,59.00
2018-05-02T20:25:27.005Z,59.00
2018-05-02T20:27:54.559Z,59.00
2018-05-02T20:30:22.077Z,59.00
2018-05-02T20:32:50.417Z,58.80
2018-05-02T20:35:17.964Z,58.70
2018-05-02T20:37:45.571Z,58.90
2018-05-02T20:40:13.154Z,58.90
2018-05-02T20:42:40.710Z,59.00
2018-05-02T20:45:09.042Z,59.10
2018-05-02T20:47:36.617Z,59.10
2018-05-02T20:50:04.168Z,59.10
2018-05-02T20:52:31.856Z,59.40
2018-05-02T20:54:59.436Z,59.60
2018-05-02T20:57:27.631Z,60.00
2018-05-02T20:59:55.552Z,60.10
2018-05-02T21:02:23.384Z,60.00
2018-05-02T21:04:51.082Z,59.80
2018-05-02T21:07:20.316Z,59.80
2018-05-02T21:09:48.159Z,59.60
2018-05-02T21:12:15.849Z,59.60
2018-05-02T21:14:43.588Z,59.70
2018-05-02T21:17:12.541Z,59.70
2018-05-02T21:19:40.207Z,59.90
2018-05-02T21:22:10.023Z,59.80
2018-05-02T21:24:38.685Z,60.00
2018-05-02T21:27:06.472Z,60.00
2018-05-02T21:29:34.090Z,60.30
2018-05-02T21:32:01.804Z,60.60
2018-05-02T21:34:29.568Z,60.50
2018-05-02T21:36:57.236Z,60.40
2018-05-02T21:39:24.829Z,60.20
2018-05-02T21:41:52.418Z,60.40
2018-05-02T21:44:23.043Z,60.60
2018-05-02T21:46:50.723Z,60.90
2018-05-02T21:49:18.287Z,61.00
2018-05-02T21:51:45.936Z,61.00
2018-05-02T21:54:13.654Z,60.80
2018-05-02T21:56:41.145Z,60.60
2018-05-02T21:59:08.725Z,61.20
2018-05-02T22:01:36.262Z,61.10
2018-05-02T22:04:03.794Z,60.90
2018-05-02T22:06:31.324Z,61.20
2018-05-02T22:08:59.000Z,61.60
2018-05-02T22:11:26.639Z,62.00
2018-05-02T22:13:54.199Z,61.90
2018-05-02T22:16:21.746Z,62.00
2018-05-02T22:18:49.265Z,62.20
2018-05-02T22:21:16.866Z,62.00
2018-05-02T22:23:44.402Z,62.00
2018-05-02T22:26:12.666Z,62.10
2018-05-02T22:28:40.194Z,62.10
2018-05-02T22:31:07.757Z,62.10
2018-05-02T22:33:35.320Z,62.10
2018-05-02T22:36:02.921Z,62.20
2018-05-02T22:38:30.507Z,62.00
2018-05-02T22:40:58.160Z,62.00
2018-05-02T22:43:25.669Z,62.10
2018-05-02T22:45:53.364Z,62.10
2018-05-02T22:48:21.686Z,62.80
2018-05-02T22:50:49.253Z,62.80
2018-05-02T22:53:16.765Z,63.20
2018-05-02T22:55:45.051Z,62.90
2018-05-02T22:58:12.637Z,62.90
2018-05-02T23:00:40.152Z,63.00
2018-05-02T23:03:07.670Z,63.30
2018-05-02T23:05:35.193Z,63.30
2018-05-02T23:08:03.471Z,63.30
2018-05-02T23:10:31.007Z,63.30
2018-05-02T23:12:58.520Z,63.30
2018-05-02T23:15:26.046Z,63.10
2018-05-02T23:17:54.352Z,64.10
2018-05-02T23:20:21.863Z,64.10
2018-05-02T23:22:49.377Z,64.30
2018-05-02T23:25:17.028Z,64.60
2018-05-02T23:27:44.541Z,64.80
2018-05-02T23:30:12.098Z,65.00
2018-05-02T23:32:39.605Z,65.70
2018-05-02T23:35:07.166Z,66.30
2018-05-02T23:37:34.694Z,67.20
2018-05-02T23:40:02.969Z,69.20
2018-05-02T23:42:31.260Z,69.30
2018-05-02T23:44:58.779Z,69.30
2018-05-02T23:47:26.336Z,69.60
2018-05-02T23:49:53.871Z,69.40
2018-05-02T23:52:21.385Z,69.50
2018-05-02T23:54:49.678Z,70.30
2018-05-02T23:57:17.296Z,70.20
2018-05-02T23:59:44.790Z,70.80
